createdAt,value
2023-05-10T06:42:06.787Z,17.44
2023-05-10T06:44:34.620Z,17.50
2023-05-10T06:47:02.216Z,17.59
2023-05-10T06:49:29.828Z,17.62
2023-05-10T06:51:57.719Z,17.71
2023-05-10T06:54:25.481Z,17.85
2023-05-10T06:56:53.152Z,17.97
2023-05-10T06:59:22.663Z,18.17
2023-05-10T07:01:50.535Z,18.40
2023-05-10T07:04:18.854Z,18.54
2023-05-10T07:06:47.492Z,18.79
2023-05-10T07:09:15.088Z,19.04
2023-05-10T07:11:42.862Z,19.38
2023-05-10T07:14:10.673Z,19.58
2023-05-10T07:16:38.563Z,19.64
2023-05-10T07:19:06.484Z,19.73
2023-05-10T07:21:34.042Z,19.87
2023-05-10T07:24:02.156Z,20.02
2023-05-10T07:26:30.144Z,20.10
2023-05-10T07:28:57.657Z,20.36
2023-05-10T07:31:25.354Z,20.62
2023-05-10T07:33:52.960Z,20.81
2023-05-10T07:36:20.837Z,20.92
2023-05-10T07:38:48.484Z,20.97
2023-05-10T07:41:16.295Z,21.25
2023-05-10T07:43:43.938Z,21.50
2023-05-10T07:46:12.148Z,21.56
2023-05-10T07:48:39.761Z,21.77
2023-05-10T07:51:10.270Z,22.04
2023-05-10T07:53:39.234Z,22.47
2023-05-10T07:56:31.225Z,23.35
2023-05-10T07:58:59.860Z,23.74
2023-05-10T08:01:31.163Z,24.28
2023-05-10T08:03:58.874Z,24.77
2023-05-10T08:06:28.216Z,25.40
2023-05-10T08:08:55.833Z,25.76
2023-05-10T08:11:23.914Z,26.10
2023-05-10T08:13:52.388Z,26.23
2023-05-10T08:16:20.101Z,26.40
2023-05-10T08:18:48.585Z,26.47
2023-05-10T08:21:16.766Z,26.69
2023-05-10T08:23:47.739Z,26.94
2023-05-10T08:26:15.450Z,27.05
2023-05-10T08:28:43.111Z,26.98
2023-05-10T08:31:10.770Z,27.17
2023-05-10T08:33:38.363Z,27.30
2023-05-10T08:36:06.302Z,27.76
2023-05-10T08:38:33.820Z,28.44
2023-05-10T08:41:03.645Z,29.00
2023-05-10T08:43:31.415Z,29.76
2023-05-10T08:46:04.256Z,30.27
2023-05-10T08:48:35.428Z,29.98
2023-05-10T08:51:04.877Z,29.31
2023-05-10T08:53:36.453Z,29.34
2023-05-10T08:56:05.010Z,29.87
2023-05-10T08:58:33.059Z,30.45
2023-05-10T09:01:02.050Z,31.20
2023-05-10T09:03:31.204Z,31.86
2023-05-10T09:05:59.610Z,32.32
2023-05-10T09:08:28.042Z,32.87
2023-05-10T09:10:56.370Z,33.02
2023-05-10T09:13:25.425Z,32.98
2023-05-10T09:15:54.298Z,32.88
2023-05-10T09:18:22.143Z,33.33
2023-05-10T09:20:50.181Z,33.32
2023-05-10T09:23:18.728Z,31.95
2023-05-10T09:25:46.852Z,31.12
2023-05-10T09:28:14.550Z,30.14
2023-05-10T09:30:44.023Z,28.75
2023-05-10T09:33:11.636Z,29.54
2023-05-10T09:35:41.239Z,31.06
2023-05-10T09:38:09.103Z,31.57
2023-05-10T09:40:36.719Z,31.56
2023-05-10T09:43:14.699Z,30.92
2023-05-10T09:45:42.546Z,31.06
2023-05-10T09:48:10.076Z,30.15
2023-05-10T09:50:37.765Z,28.61
2023-05-10T09:53:05.407Z,27.27
2023-05-10T09:55:40.471Z,26.17
2023-05-10T09:58:11.361Z,25.20
2023-05-10T10:00:44.160Z,24.57
2023-05-10T10:03:16.795Z,24.26
2023-05-10T10:05:45.701Z,25.10
2023-05-10T10:08:14.087Z,26.64
2023-05-10T10:10:42.468Z,27.74
2023-05-10T10:13:10.237Z,27.22
2023-05-10T10:15:38.266Z,26.18
2023-05-10T10:18:06.657Z,25.13
2023-05-10T10:20:34.316Z,24.16
2023-05-10T10:23:02.093Z,23.52
2023-05-10T10:25:30.001Z,23.20
2023-05-10T10:28:11.326Z,23.27
2023-05-10T10:30:47.013Z,24.52
2023-05-10T10:33:42.190Z,27.19
2023-05-10T10:36:09.991Z,27.73
2023-05-10T10:38:49.690Z,27.17
2023-05-10T10:41:35.539Z,26.38
2023-05-10T10:44:21.992Z,26.25
2023-05-10T10:47:07.193Z,26.50
2023-05-10T10:49:44.705Z,25.98
2023-05-10T10:52:15.430Z,25.50
2023-05-10T10:54:51.521Z,25.03
2023-05-10T10:57:22.716Z,24.50
2023-05-10T10:59:50.560Z,24.03
2023-05-10T11:02:50.002Z,23.72
2023-05-10T11:05:29.770Z,23.11
2023-05-10T11:07:59.492Z,22.62
2023-05-10T11:10:28.598Z,22.31
2023-05-10T11:13:09.599Z,22.11
2023-05-10T11:15:39.261Z,21.75
2023-05-10T11:18:21.240Z,21.83
2023-05-10T11:21:04.354Z,21.67
2023-05-10T11:23:33.979Z,21.84
2023-05-10T11:26:05.923Z,22.03
2023-05-10T11:28:33.622Z,22.14
2023-05-10T11:31:01.361Z,22.16
2023-05-10T11:33:29.298Z,22.18
2023-05-10T11:35:56.989Z,22.29
2023-05-10T11:38:24.443Z,22.38
2023-05-10T11:40:54.420Z,22.23
2023-05-10T11:43:24.989Z,22.04
2023-05-10T11:45:52.660Z,21.88
2023-05-10T11:48:23.541Z,21.61
2023-05-10T11:50:51.610Z,21.40
2023-05-10T11:53:21.602Z,21.18
2023-05-10T11:55:49.717Z,20.98
2023-05-10T11:58:19.135Z,20.74
2023-05-10T12:00:47.688Z,20.53
2023-05-10T12:03:15.491Z,20.47
2023-05-10T12:05:43.299Z,20.39
2023-05-10T12:08:21.398Z,20.42
2023-05-10T12:10:49.029Z,20.28
2023-05-10T12:13:16.815Z,20.25
2023-05-10T12:15:44.812Z,20.23
2023-05-10T12:18:16.386Z,20.31
2023-05-10T12:20:44.066Z,20.41
2023-05-10T12:23:14.359Z,20.65
2023-05-10T12:25:41.943Z,20.79
2023-05-10T12:28:10.729Z,20.91
2023-05-10T12:30:39.827Z,21.09
2023-05-10T12:33:13.095Z,21.20
2023-05-10T12:35:49.033Z,21.33
2023-05-10T12:38:49.130Z,21.45
2023-05-10T12:41:18.824Z,21.08
2023-05-10T12:43:47.561Z,20.91
2023-05-10T12:46:19.644Z,20.68
2023-05-10T12:48:53.229Z,20.62
2023-05-10T12:51:25.142Z,20.50
2023-05-10T12:53:52.898Z,20.26
2023-05-10T12:56:21.161Z,20.07
2023-05-10T12:58:49.332Z,19.87
2023-05-10T13:01:17.002Z,19.67
2023-05-10T13:03:44.926Z,19.44
2023-05-10T13:06:14.469Z,19.33
2023-05-10T13:08:42.046Z,19.25
2023-05-10T13:11:09.643Z,19.06
2023-05-10T13:13:37.156Z,18.89
2023-05-10T13:16:05.000Z,18.79
2023-05-10T13:18:32.573Z,18.67
2023-05-10T13:21:00.369Z,18.65
2023-05-10T13:23:27.913Z,18.56
2023-05-10T13:25:55.728Z,18.52
2023-05-10T13:28:23.248Z,18.51
2023-05-10T13:30:50.985Z,18.52
2023-05-10T13:33:18.542Z,18.56
2023-05-10T13:35:46.331Z,18.62
2023-05-10T13:38:14.913Z,18.68
2023-05-10T13:40:42.479Z,18.66
2023-05-10T13:43:10.131Z,18.70
2023-05-10T13:45:37.912Z,18.75
2023-05-10T13:48:05.703Z,18.78
2023-05-10T13:50:33.342Z,18.72
2023-05-10T13:53:01.320Z,18.73
2023-05-10T13:55:29.790Z,18.64
2023-05-10T13:57:57.495Z,18.65
2023-05-10T14:00:25.103Z,18.59
2023-05-10T14:02:52.823Z,18.60
2023-05-10T14:05:25.533Z,18.52
2023-05-10T14:07:54.797Z,18.50
2023-05-10T14:10:22.586Z,18.50
2023-05-10T14:12:51.059Z,18.45
2023-05-10T14:15:19.309Z,18.42
2023-05-10T14:17:47.214Z,18.36
2023-05-10T14:20:14.735Z,18.32
2023-05-10T14:22:42.493Z,18.31
2023-05-10T14:25:10.321Z,18.30
2023-05-10T14:27:38.154Z,18.33
2023-05-10T14:30:06.360Z,18.30
2023-05-10T14:32:35.052Z,18.27
2023-05-10T14:35:02.628Z,18.21
2023-05-10T14:37:32.168Z,18.10
2023-05-10T14:39:59.823Z,18.05
2023-05-10T14:42:27.283Z,17.98
2023-05-10T14:44:54.871Z,17.93
2023-05-10T14:47:22.375Z,17.88
2023-05-10T14:49:50.040Z,17.84
2023-05-10T14:52:17.947Z,17.82
2023-05-10T14:54:45.474Z,17.78
2023-05-10T14:57:13.128Z,17.76
2023-05-10T14:59:40.698Z,17.75
2023-05-10T15:02:09.414Z,17.67
2023-05-10T15:04:38.071Z,17.63
2023-05-10T15:07:06.835Z,17.55
2023-05-10T15:09:34.362Z,17.55
2023-05-10T15:12:02.046Z,17.52
2023-05-10T15:14:29.929Z,17.45
2023-05-10T15:16:57.454Z,17.46
2023-05-10T15:19:25.029Z,17.42
2023-05-10T15:21:52.590Z,17.35
2023-05-10T15:24:20.313Z,17.33
2023-05-10T15:26:48.201Z,17.26
2023-05-10T15:29:20.757Z,17.22
2023-05-10T15:31:49.675Z,17.18
2023-05-10T15:34:18.395Z,17.15
2023-05-10T15:36:46.425Z,17.11
2023-05-10T15:39:14.765Z,17.04
2023-05-10T15:41:42.749Z,17.04
2023-05-10T15:44:10.235Z,17.02
2023-05-10T15:46:38.990Z,16.98
2023-05-10T15:49:07.610Z,16.93
2023-05-10T15:51:36.629Z,16.90
2023-05-10T15:54:08.223Z,16.84
2023-05-10T15:56:36.551Z,16.79
2023-05-10T15:59:04.178Z,16.75
2023-05-10T16:01:32.855Z,16.72
2023-05-10T16:04:01.236Z,16.67
2023-05-10T16:06:28.945Z,16.70
2023-05-10T16:08:56.523Z,16.63
2023-05-10T16:11:24.410Z,16.60
2023-05-10T16:13:52.868Z,16.56
2023-05-10T16:16:20.506Z,16.50
2023-05-10T16:18:49.005Z,16.46
2023-05-10T16:21:16.932Z,16.44
2023-05-10T16:23:46.755Z,16.39
2023-05-10T16:26:14.417Z,16.33
2023-05-10T16:28:41.978Z,16.26
2023-05-10T16:31:09.663Z,16.26
2023-05-10T16:33:37.499Z,16.23
2023-05-10T16:36:06.207Z,16.20
2023-05-10T16:38:33.858Z,16.17
2023-05-10T16:41:04.563Z,16.14
2023-05-10T16:43:32.916Z,16.10
2023-05-10T16:46:00.918Z,16.03
2023-05-10T16:48:28.623Z,16.07
2023-05-10T16:50:56.274Z,16.06
2023-05-10T16:53:23.811Z,16.05
2023-05-10T16:55:51.605Z,16.02
2023-05-10T16:58:19.311Z,16.02
2023-05-10T17:00:47.112Z,15.94
2023-05-10T17:03:15.023Z,15.97
2023-05-10T17:05:43.310Z,15.93
2023-05-10T17:08:11.012Z,15.85
2023-05-10T17:10:41.649Z,15.89
2023-05-10T17:13:10.397Z,15.87
2023-05-10T17:15:39.672Z,15.87
2023-05-10T17:18:07.920Z,15.83
2023-05-10T17:20:35.995Z,15.81
2023-05-10T17:23:03.853Z,15.77
2023-05-10T17:25:31.568Z,15.72
2023-05-10T17:27:59.142Z,15.72
2023-05-10T17:30:28.831Z,15.71
2023-05-10T17:32:56.451Z,15.67
2023-05-10T17:35:24.222Z,15.67
2023-05-10T17:37:52.013Z,15.65
2023-05-10T17:40:19.857Z,15.69
2023-05-10T17:42:49.103Z,15.67
2023-05-10T17:45:17.653Z,15.66
2023-05-10T17:47:45.755Z,15.66
2023-05-10T17:50:13.401Z,15.62
2023-05-10T17:52:40.936Z,15.61
2023-05-10T17:55:09.136Z,15.62
2023-05-10T17:57:38.892Z,15.58
2023-05-10T18:00:08.882Z,15.58
2023-05-10T18:02:37.027Z,15.61
2023-05-10T18:05:05.602Z,15.60
2023-05-10T18:07:33.541Z,15.59
2023-05-10T18:10:01.272Z,15.58
2023-05-10T18:12:29.674Z,15.60
2023-05-10T18:14:57.800Z,15.57
2023-05-10T18:17:26.337Z,15.55
2023-05-10T18:19:53.988Z,15.53
2023-05-10T18:22:21.758Z,15.52
2023-05-10T18:24:49.323Z,15.46
2023-05-10T18:27:17.274Z,15.48
2023-05-10T18:29:45.228Z,15.44
2023-05-10T18:32:12.875Z,15.35
2023-05-10T18:34:40.729Z,15.37
2023-05-10T18:37:09.693Z,15.36
2023-05-10T18:39:37.763Z,15.35
2023-05-10T18:42:06.065Z,15.30
2023-05-10T18:44:34.004Z,15.34
2023-05-10T18:47:01.608Z,15.28
2023-05-10T18:49:29.501Z,15.25
2023-05-10T18:51:57.282Z,15.25
2023-05-10T18:54:25.307Z,15.24
2023-05-10T18:56:52.980Z,15.22
2023-05-10T18:59:20.670Z,15.21
2023-05-10T19:01:50.878Z,15.20
2023-05-10T19:04:19.037Z,15.22
2023-05-10T19:06:46.783Z,15.16
2023-05-10T19:09:14.464Z,15.17
2023-05-10T19:11:43.439Z,15.16
2023-05-10T19:14:11.233Z,15.15
2023-05-10T19:16:40.515Z,15.13
2023-05-10T19:19:09.061Z,15.07
2023-05-10T19:21:38.080Z,15.10
2023-05-10T19:24:06.602Z,15.12
2023-05-10T19:26:34.361Z,15.15
2023-05-10T19:29:02.193Z,15.13
2023-05-10T19:31:30.153Z,15.15
2023-05-10T19:34:00.628Z,15.14
2023-05-10T19:36:28.906Z,15.15
2023-05-10T19:38:56.928Z,15.16
2023-05-10T19:41:24.691Z,15.15
2023-05-10T19:43:52.357Z,15.10
2023-05-10T19:46:20.415Z,15.12
2023-05-10T19:48:50.118Z,15.12
2023-05-10T19:51:18.577Z,15.12
2023-05-10T19:53:47.074Z,15.08
2023-05-10T19:56:14.948Z,15.04
2023-05-10T19:58:42.775Z,15.02
2023-05-10T20:01:10.717Z,15.01
2023-05-10T20:03:38.694Z,14.96
2023-05-10T20:06:06.430Z,14.96
2023-05-10T20:08:34.087Z,14.90
2023-05-10T20:11:03.882Z,14.88
2023-05-10T20:13:31.924Z,14.80
2023-05-10T20:16:00.072Z,14.76
2023-05-10T20:18:27.910Z,14.73
2023-05-10T20:20:57.972Z,14.65
2023-05-10T20:23:26.044Z,14.63
2023-05-10T20:25:54.894Z,14.58
2023-05-10T20:28:24.060Z,14.59
2023-05-10T20:30:54.400Z,14.58
2023-05-10T20:33:22.950Z,14.59
2023-05-10T20:35:51.436Z,14.58
2023-05-10T20:38:19.445Z,14.55
2023-05-10T20:40:47.433Z,14.58
2023-05-10T20:43:15.170Z,14.57
2023-05-10T20:45:42.894Z,14.54
2023-05-10T20:48:10.499Z,14.51
2023-05-10T20:50:38.227Z,14.48
2023-05-10T20:53:06.188Z,14.46
2023-05-10T20:55:33.881Z,14.45
2023-05-10T20:58:04.140Z,14.44
2023-05-10T21:00:32.623Z,14.42
2023-05-10T21:03:00.242Z,14.40
2023-05-10T21:05:27.992Z,14.43
2023-05-10T21:07:55.679Z,14.38
2023-05-10T21:10:23.331Z,14.43
2023-05-10T21:12:51.070Z,14.42
2023-05-10T21:15:18.735Z,14.45
2023-05-10T21:17:46.344Z,14.42
2023-05-10T21:20:13.959Z,14.43
2023-05-10T21:22:41.607Z,14.42
2023-05-10T21:25:09.805Z,14.40
2023-05-10T21:27:37.560Z,14.36
2023-05-10T21:30:06.459Z,14.29
2023-05-10T21:32:34.349Z,14.29
2023-05-10T21:35:02.217Z,14.26
2023-05-10T21:37:31.949Z,14.22
2023-05-10T21:39:59.545Z,14.19
2023-05-10T21:42:27.277Z,14.16
2023-05-10T21:44:54.942Z,14.14
2023-05-10T21:47:22.668Z,14.09
2023-05-10T21:49:50.670Z,14.07
2023-05-10T21:52:18.450Z,14.08
2023-05-10T21:54:46.152Z,14.06
2023-05-10T21:57:13.703Z,14.02
2023-05-10T21:59:41.278Z,14.05
2023-05-10T22:02:09.097Z,14.05
2023-05-10T22:04:36.690Z,14.04
2023-05-10T22:07:04.388Z,14.03
2023-05-10T22:09:32.052Z,14.02
2023-05-10T22:11:59.675Z,14.01
2023-05-10T22:14:27.177Z,13.97
2023-05-10T22:16:54.975Z,13.90
2023-05-10T22:19:22.560Z,13.88
2023-05-10T22:21:50.152Z,13.87
2023-05-10T22:24:17.776Z,13.85
2023-05-10T22:26:45.517Z,13.90
2023-05-10T22:29:13.208Z,13.87
2023-05-10T22:31:41.246Z,13.75
2023-05-10T22:34:08.973Z,13.83
2023-05-10T22:36:37.375Z,13.82
2023-05-10T22:39:05.134Z,13.77
2023-05-10T22:41:36.019Z,13.81
2023-05-10T22:44:05.136Z,13.78
2023-05-10T22:46:33.121Z,13.76
2023-05-10T22:49:00.805Z,13.72
2023-05-10T22:51:28.649Z,13.72
2023-05-10T22:53:56.227Z,13.68
2023-05-10T22:56:23.813Z,13.69
2023-05-10T22:58:51.460Z,13.67
2023-05-10T23:01:19.175Z,13.63
2023-05-10T23:03:46.673Z,13.55
2023-05-10T23:06:14.467Z,13.56
2023-05-10T23:08:41.936Z,13.51
2023-05-10T23:11:09.625Z,13.52
2023-05-10T23:13:37.237Z,13.50
2023-05-10T23:16:06.616Z,13.49
2023-05-10T23:18:34.293Z,13.54
2023-05-10T23:21:01.998Z,13.55
2023-05-10T23:23:29.653Z,13.52
2023-05-10T23:25:57.262Z,13.54
2023-05-10T23:28:24.901Z,13.51
2023-05-10T23:30:56.775Z,13.50
2023-05-10T23:33:25.216Z,13.49
2023-05-10T23:35:54.212Z,13.45
2023-05-10T23:38:21.973Z,13.44
2023-05-10T23:40:50.874Z,13.40
2023-05-10T23:43:19.863Z,13.38
2023-05-10T23:45:55.220Z,13.39
2023-05-10T23:48:23.311Z,13.33
2023-05-10T23:50:51.312Z,13.27
2023-05-10T23:53:19.109Z,13.26
2023-05-10T23:55:46.898Z,13.27
2023-05-10T23:58:14.543Z,13.25
